sensor_id;sensor_type;location;lat;lon;timestamp;temperature;humidity
16491;DHT22;8356;51.214;3.270;2022-10-01T00:00:54;359.10;2329.60
16491;DHT22;8356;51.214;3.270;2022-10-01T00:03:21;359.20;2329.60
16491;DHT22;8356;51.214;3.270;2022-10-01T00:06:04;359.20;2329.60
16491;DHT22;8356;51.214;3.270;2022-10-01T00:08:31;359.20;2329.60
16491;DHT22;8356;51.214;3.270;2022-10-01T00:10:58;359.20;2329.60
16491;DHT22;8356;51.214;3.270;2022-10-01T00:13:29;359.20;2329.60
16491;DHT22;8356;51.214;3.270;2022-10-01T00:15:55;359.20;2329.60
16491;DHT22;8356;51.214;3.270;2022-10-01T00:18:21;359.20;2329.60
16491;DHT22;8356;51.214;3.270;2022-10-01T00:20:47;359.30;2329.60
16491;DHT22;8356;51.214;3.270;2022-10-01T00:23:13;359.30;2329.60
16491;DHT22;8356;51.214;3.270;2022-10-01T00:25:40;359.30;2329.60
16491;DHT22;8356;51.214;3.270;2022-10-01T00:28:06;384.10;2329.60
16491;DHT22;8356;51.214;3.270;2022-10-01T00:30:32;359.30;2329.60
16491;DHT22;8356;51.214;3.270;2022-10-01T00:32:58;359.30;2329.60
16491;DHT22;8356;51.214;3.270;2022-10-01T00:35:24;359.20;2329.60
16491;DHT22;8356;51.214;3.270;2022-10-01T00:37:50;359.20;2329.60
16491;DHT22;8356;51.214;3.270;2022-10-01T00:40:20;359.20;2329.60
16491;DHT22;8356;51.214;3.270;2022-10-01T00:42:46;359.30;2329.60
16491;DHT22;8356;51.214;3.270;2022-10-01T00:45:13;359.30;2329.60
16491;DHT22;8356;51.214;3.270;2022-10-01T00:47:50;359.30;2329.60
16491;DHT22;8356;51.214;3.270;2022-10-01T00:53:05;384.10;2329.60
16491;DHT22;8356;51.214;3.270;2022-10-01T00:55:35;359.30;2329.60
16491;DHT22;8356;51.214;3.270;2022-10-01T00:58:05;359.30;2329.60
16491;DHT22;8356;51.214;3.270;2022-10-01T01:00:31;384.00;2329.60
16491;DHT22;8356;51.214;3.270;2022-10-01T01:02:57;359.30;2329.60
16491;DHT22;8356;51.214;3.270;2022-10-01T01:05:23;359.30;2329.60
16491;DHT22;8356;51.214;3.270;2022-10-01T01:07:51;359.30;2329.60
16491;DHT22;8356;51.214;3.270;2022-10-01T01:10:59;359.30;2329.60
16491;DHT22;8356;51.214;3.270;2022-10-01T01:13:36;359.30;2329.60
16491;DHT22;8356;51.214;3.270;2022-10-01T01:16:11;359.30;2329.60
16491;DHT22;8356;51.214;3.270;2022-10-01T01:18:51;359.30;2329.60
16491;DHT22;8356;51.214;3.270;2022-10-01T01:21:25;359.30;2329.60
16491;DHT22;8356;51.214;3.270;2022-10-01T01:31:57;384.00;2329.60
16491;DHT22;8356;51.214;3.270;2022-10-01T01:34:29;384.00;2329.60
16491;DHT22;8356;51.214;3.270;2022-10-01T01:37:06;384.10;2329.60
16491;DHT22;8356;51.214;3.270;2022-10-01T01:39:38;384.00;2329.60
16491;DHT22;8356;51.214;3.270;2022-10-01T01:42:10;384.00;2329.60
16491;DHT22;8356;51.214;3.270;2022-10-01T01:44:41;384.00;2329.60
16491;DHT22;8356;51.214;3.270;2022-10-01T01:47:11;384.00;2329.60
16491;DHT22;8356;51.214;3.270;2022-10-01T01:49:37;384.00;2329.60
16491;DHT22;8356;51.214;3.270;2022-10-01T01:54:33;384.10;2329.60
16491;DHT22;8356;51.214;3.270;2022-10-01T01:57:00;384.10;2329.60
16491;DHT22;8356;51.214;3.270;2022-10-01T01:59:29;384.10;2329.60
16491;DHT22;8356;51.214;3.270;2022-10-01T02:01:55;384.10;2329.60
16491;DHT22;8356;51.214;3.270;2022-10-01T02:04:35;384.10;2329.60
16491;DHT22;8356;51.214;3.270;2022-10-01T02:21:21;384.30;2329.60
16491;DHT22;8356;51.214;3.270;2022-10-01T02:26:41;384.30;2329.60
16491;DHT22;8356;51.214;3.270;2022-10-01T02:29:10;384.40;2329.60
16491;DHT22;8356;51.214;3.270;2022-10-01T02:31:38;384.40;2329.60
16491;DHT22;8356;51.214;3.270;2022-10-01T02:34:07;384.40;2329.60
16491;DHT22;8356;51.214;3.270;2022-10-01T02:36:34;384.40;2329.60
16491;DHT22;8356;51.214;3.270;2022-10-01T02:39:02;384.40;2329.60
16491;DHT22;8356;51.214;3.270;2022-10-01T02:41:34;384.50;2329.60
16491;DHT22;8356;51.214;3.270;2022-10-01T02:44:05;384.50;2329.60
16491;DHT22;8356;51.214;3.270;2022-10-01T02:47:01;384.50;2329.60
16491;DHT22;8356;51.214;3.270;2022-10-01T02:49:29;384.50;2329.60
16491;DHT22;8356;51.214;3.270;2022-10-01T02:54:38;384.60;2329.60
16491;DHT22;8356;51.214;3.270;2022-10-01T02:57:04;384.60;2329.60
16491;DHT22;8356;51.214;3.270;2022-10-01T02:59:53;384.60;2329.60
16491;DHT22;8356;51.214;3.270;2022-10-01T03:02:20;384.60;2329.60
16491;DHT22;8356;51.214;3.270;2022-10-01T03:04:46;384.60;2329.60
16491;DHT22;8356;51.214;3.270;2022-10-01T03:07:14;384.70;2329.60
16491;DHT22;8356;51.214;3.270;2022-10-01T03:09:40;384.60;2329.60
16491;DHT22;8356;51.214;3.270;2022-10-01T03:12:05;384.70;2329.60
16491;DHT22;8356;51.214;3.270;2022-10-01T03:14:31;384.70;2329.60
16491;DHT22;8356;51.214;3.270;2022-10-01T03:16:58;384.70;2329.60
16491;DHT22;8356;51.214;3.270;2022-10-01T03:19:24;384.70;2329.60
16491;DHT22;8356;51.214;3.270;2022-10-01T03:21:50;384.70;2329.60
16491;DHT22;8356;51.214;3.270;2022-10-01T03:24:15;384.70;2329.60
16491;DHT22;8356;51.214;3.270;2022-10-01T03:26:41;384.70;2329.60
16491;DHT22;8356;51.214;3.270;2022-10-01T03:29:07;384.70;2329.60
16491;DHT22;8356;51.214;3.270;2022-10-01T03:31:34;384.80;2329.60
16491;DHT22;8356;51.214;3.270;2022-10-01T03:33:59;384.80;2329.60
16491;DHT22;8356;51.214;3.270;2022-10-01T03:36:28;384.80;2329.60
16491;DHT22;8356;51.214;3.270;2022-10-01T03:38:55;384.80;2329.60
16491;DHT22;8356;51.214;3.270;2022-10-01T03:41:21;384.80;2329.60
16491;DHT22;8356;51.214;3.270;2022-10-01T03:43:46;384.80;2329.60
16491;DHT22;8356;51.214;3.270;2022-10-01T03:46:12;384.80;2329.60
16491;DHT22;8356;51.214;3.270;2022-10-01T03:48:38;384.90;2329.60
16491;DHT22;8356;51.214;3.270;2022-10-01T03:51:03;384.90;2329.60
16491;DHT22;8356;51.214;3.270;2022-10-01T03:53:30;384.90;2329.60
16491;DHT22;8356;51.214;3.270;2022-10-01T03:55:57;384.90;2329.60
16491;DHT22;8356;51.214;3.270;2022-10-01T03:58:23;384.90;2329.60
16491;DHT22;8356;51.214;3.270;2022-10-01T04:00:50;384.90;2329.60
16491;DHT22;8356;51.214;3.270;2022-10-01T04:03:16;384.90;2329.60
16491;DHT22;8356;51.214;3.270;2022-10-01T04:05:43;384.90;2329.60
16491;DHT22;8356;51.214;3.270;2022-10-01T04:08:09;409.60;2355.20
16491;DHT22;8356;51.214;3.270;2022-10-01T04:10:35;409.60;2355.20
16491;DHT22;8356;51.214;3.270;2022-10-01T04:13:00;409.60;2355.20
16491;DHT22;8356;51.214;3.270;2022-10-01T04:15:26;409.70;2355.20
16491;DHT22;8356;51.214;3.270;2022-10-01T04:17:52;409.70;2355.20
16491;DHT22;8356;51.214;3.270;2022-10-01T04:20:18;409.80;2355.20
16491;DHT22;8356;51.214;3.270;2022-10-01T04:22:43;409.80;2355.20
16491;DHT22;8356;51.214;3.270;2022-10-01T04:25:11;409.80;2355.20
16491;DHT22;8356;51.214;3.270;2022-10-01T04:27:40;409.70;2355.20
16491;DHT22;8356;51.214;3.270;2022-10-01T04:30:08;409.80;2355.20
16491;DHT22;8356;51.214;3.270;2022-10-01T04:32:34;409.80;2355.20
16491;DHT22;8356;51.214;3.270;2022-10-01T04:35:00;409.80;2355.20
16491;DHT22;8356;51.214;3.270;2022-10-01T04:37:28;409.80;2355.20
16491;DHT22;8356;51.214;3.270;2022-10-01T04:39:55;409.80;2355.20
16491;DHT22;8356;51.214;3.270;2022-10-01T04:42:21;409.80;2355.20
16491;DHT22;8356;51.214;3.270;2022-10-01T04:44:47;409.80;2355.20
16491;DHT22;8356;51.214;3.270;2022-10-01T04:47:12;409.80;2355.20
16491;DHT22;8356;51.214;3.270;2022-10-01T04:49:38;409.80;2355.20
16491;DHT22;8356;51.214;3.270;2022-10-01T04:52:04;409.80;2355.20
16491;DHT22;8356;51.214;3.270;2022-10-01T04:54:30;409.70;2355.20
16491;DHT22;8356;51.214;3.270;2022-10-01T04:56:56;409.70;2355.20
16491;DHT22;8356;51.214;3.270;2022-10-01T04:59:24;409.60;2355.20
16491;DHT22;8356;51.214;3.270;2022-10-01T05:01:50;409.60;2355.20
16491;DHT22;8356;51.214;3.270;2022-10-01T05:04:16;409.60;2355.20
16491;DHT22;8356;51.214;3.270;2022-10-01T05:06:41;409.60;2355.20
16491;DHT22;8356;51.214;3.270;2022-10-01T05:09:07;409.60;2355.20
16491;DHT22;8356;51.214;3.270;2022-10-01T05:11:32;409.60;2355.20
16491;DHT22;8356;51.214;3.270;2022-10-01T05:14:02;409.60;2355.20
16491;DHT22;8356;51.214;3.270;2022-10-01T05:16:28;384.50;2329.60
16491;DHT22;8356;51.214;3.270;2022-10-01T05:18:53;409.70;2355.20
16491;DHT22;8356;51.214;3.270;2022-10-01T05:21:19;409.80;2355.20
16491;DHT22;8356;51.214;3.270;2022-10-01T05:23:45;409.80;2355.20
16491;DHT22;8356;51.214;3.270;2022-10-01T05:26:11;409.80;2355.20
16491;DHT22;8356;51.214;3.270;2022-10-01T05:28:36;409.90;2355.20
16491;DHT22;8356;51.214;3.270;2022-10-01T05:31:10;409.90;2355.20
16491;DHT22;8356;51.214;3.270;2022-10-01T05:33:36;410.00;2355.20
16491;DHT22;8356;51.214;3.270;2022-10-01T05:36:02;410.00;2355.20
16491;DHT22;8356;51.214;3.270;2022-10-01T05:38:29;410.00;2355.20
16491;DHT22;8356;51.214;3.270;2022-10-01T05:40:55;410.00;2355.20
16491;DHT22;8356;51.214;3.270;2022-10-01T05:43:20;410.00;2355.20
16491;DHT22;8356;51.214;3.270;2022-10-01T05:45:46;410.00;2355.20
16491;DHT22;8356;51.214;3.270;2022-10-01T05:48:12;410.00;2355.20
16491;DHT22;8356;51.214;3.270;2022-10-01T05:50:39;410.00;2355.20
16491;DHT22;8356;51.214;3.270;2022-10-01T05:53:05;410.00;2355.20
16491;DHT22;8356;51.214;3.270;2022-10-01T05:55:32;410.00;2355.20
16491;DHT22;8356;51.214;3.270;2022-10-01T05:58:10;410.00;2355.20
16491;DHT22;8356;51.214;3.270;2022-10-01T06:00:37;410.00;2355.20
16491;DHT22;8356;51.214;3.270;2022-10-01T06:03:03;410.00;2355.20
16491;DHT22;8356;51.214;3.270;2022-10-01T06:05:30;410.00;2355.20
16491;DHT22;8356;51.214;3.270;2022-10-01T06:07:56;409.90;2355.20
16491;DHT22;8356;51.214;3.270;2022-10-01T06:10:22;409.90;2355.20
16491;DHT22;8356;51.214;3.270;2022-10-01T06:12:49;409.90;2355.20
16491;DHT22;8356;51.214;3.270;2022-10-01T06:15:15;409.90;2355.20
16491;DHT22;8356;51.214;3.270;2022-10-01T06:17:42;409.90;2355.20
16491;DHT22;8356;51.214;3.270;2022-10-01T06:20:15;409.90;2355.20
16491;DHT22;8356;51.214;3.270;2022-10-01T06:22:42;409.60;2355.20
16491;DHT22;8356;51.214;3.270;2022-10-01T06:25:12;409.80;2355.20
16491;DHT22;8356;51.214;3.270;2022-10-01T06:27:40;409.80;2355.20
16491;DHT22;8356;51.214;3.270;2022-10-01T06:30:06;409.80;2355.20
16491;DHT22;8356;51.214;3.270;2022-10-01T06:32:32;409.80;2355.20
16491;DHT22;8356;51.214;3.270;2022-10-01T06:34:57;409.80;2355.20
16491;DHT22;8356;51.214;3.270;2022-10-01T06:37:23;409.80;2355.20
16491;DHT22;8356;51.214;3.270;2022-10-01T06:39:49;409.80;2355.20
16491;DHT22;8356;51.214;3.270;2022-10-01T06:42:15;409.80;2355.20
16491;DHT22;8356;51.214;3.270;2022-10-01T06:44:41;409.80;2355.20
16491;DHT22;8356;51.214;3.270;2022-10-01T06:47:07;409.80;2355.20
16491;DHT22;8356;51.214;3.270;2022-10-01T06:49:33;409.80;2355.20
16491;DHT22;8356;51.214;3.270;2022-10-01T06:51:59;409.80;2355.20
16491;DHT22;8356;51.214;3.270;2022-10-01T06:54:44;409.90;2355.20
16491;DHT22;8356;51.214;3.270;2022-10-01T06:57:09;410.00;2355.20
16491;DHT22;8356;51.214;3.270;2022-10-01T06:59:35;410.10;2355.20
16491;DHT22;8356;51.214;3.270;2022-10-01T07:02:02;410.20;2355.20
16491;DHT22;8356;51.214;3.270;2022-10-01T07:04:28;410.20;2355.20
16491;DHT22;8356;51.214;3.270;2022-10-01T07:06:54;410.20;2355.20
16491;DHT22;8356;51.214;3.270;2022-10-01T07:09:25;410.30;2355.20
16491;DHT22;8356;51.214;3.270;2022-10-01T07:11:52;410.30;2355.20
16491;DHT22;8356;51.214;3.270;2022-10-01T07:14:18;410.30;2355.20
16491;DHT22;8356;51.214;3.270;2022-10-01T07:16:45;410.40;2355.20
16491;DHT22;8356;51.214;3.270;2022-10-01T07:19:11;410.50;2355.20
16491;DHT22;8356;51.214;3.270;2022-10-01T07:21:37;410.50;2355.20
16491;DHT22;8356;51.214;3.270;2022-10-01T07:24:02;435.20;2355.20
16491;DHT22;8356;51.214;3.270;2022-10-01T07:26:28;435.20;2355.20
16491;DHT22;8356;51.214;3.270;2022-10-01T07:28:54;435.40;2355.20
16491;DHT22;8356;51.214;3.270;2022-10-01T07:31:20;435.40;2355.20
16491;DHT22;8356;51.214;3.270;2022-10-01T07:33:46;435.40;2355.20
16491;DHT22;8356;51.214;3.270;2022-10-01T07:36:12;435.40;2355.20
16491;DHT22;8356;51.214;3.270;2022-10-01T07:38:38;435.40;2355.20
16491;DHT22;8356;51.214;3.270;2022-10-01T07:41:03;435.30;2355.20
16491;DHT22;8356;51.214;3.270;2022-10-01T07:43:32;435.30;2355.20
16491;DHT22;8356;51.214;3.270;2022-10-01T07:45:58;435.40;2355.20
16491;DHT22;8356;51.214;3.270;2022-10-01T07:48:26;435.30;2355.20
16491;DHT22;8356;51.214;3.270;2022-10-01T07:50:52;435.30;2355.20
16491;DHT22;8356;51.214;3.270;2022-10-01T07:53:18;435.40;2355.20
16491;DHT22;8356;51.214;3.270;2022-10-01T07:55:44;435.40;2355.20
16491;DHT22;8356;51.214;3.270;2022-10-01T07:58:10;435.40;2355.20
16491;DHT22;8356;51.214;3.270;2022-10-01T08:00:37;435.50;2355.20
16491;DHT22;8356;51.214;3.270;2022-10-01T08:03:03;410.30;2355.20
16491;DHT22;8356;51.214;3.270;2022-10-01T08:05:33;435.40;2355.20
16491;DHT22;8356;51.214;3.270;2022-10-01T08:08:02;435.50;2355.20
16491;DHT22;8356;51.214;3.270;2022-10-01T08:10:28;435.50;2355.20
16491;DHT22;8356;51.214;3.270;2022-10-01T08:13:02;435.70;2355.20
16491;DHT22;8356;51.214;3.270;2022-10-01T08:15:33;435.90;2355.20
16491;DHT22;8356;51.214;3.270;2022-10-01T08:18:03;436.00;2355.20
16491;DHT22;8356;51.214;3.270;2022-10-01T08:20:29;436.00;2355.20
16491;DHT22;8356;51.214;3.270;2022-10-01T08:23:10;435.90;2355.20
16491;DHT22;8356;51.214;3.270;2022-10-01T08:25:36;435.90;2355.20
16491;DHT22;8356;51.214;3.270;2022-10-01T08:28:02;436.00;2355.20
16491;DHT22;8356;51.214;3.270;2022-10-01T08:30:28;436.10;2355.20
16491;DHT22;8356;51.214;3.270;2022-10-01T08:32:58;460.80;2380.80
16491;DHT22;8356;51.214;3.270;2022-10-01T08:35:25;460.80;2380.80
16491;DHT22;8356;51.214;3.270;2022-10-01T08:37:51;460.80;2380.80
16491;DHT22;8356;51.214;3.270;2022-10-01T08:40:18;460.80;2380.80
16491;DHT22;8356;51.214;3.270;2022-10-01T08:42:50;461.00;2380.80
16491;DHT22;8356;51.214;3.270;2022-10-01T08:45:24;461.10;2380.80
16491;DHT22;8356;51.214;3.270;2022-10-01T08:48:12;461.20;2380.80
16491;DHT22;8356;51.214;3.270;2022-10-01T08:53:14;461.10;2380.80
16491;DHT22;8356;51.214;3.270;2022-10-01T08:55:41;461.00;2380.80
16491;DHT22;8356;51.214;3.270;2022-10-01T08:58:11;461.00;2380.80
16491;DHT22;8356;51.214;3.270;2022-10-01T09:00:44;461.20;2380.80
16491;DHT22;8356;51.214;3.270;2022-10-01T09:03:12;461.30;2380.80
16491;DHT22;8356;51.214;3.270;2022-10-01T09:06:09;461.20;2380.80
16491;DHT22;8356;51.214;3.270;2022-10-01T09:08:55;461.10;2380.80
16491;DHT22;8356;51.214;3.270;2022-10-01T09:22:38;486.50;2380.80
16491;DHT22;8356;51.214;3.270;2022-10-01T09:27:33;486.60;2380.80
16491;DHT22;8356;51.214;3.270;2022-10-01T09:30:04;486.60;2380.80
16491;DHT22;8356;51.214;3.270;2022-10-01T09:32:37;486.70;2380.80
16491;DHT22;8356;51.214;3.270;2022-10-01T09:35:11;486.90;2380.80
16491;DHT22;8356;51.214;3.270;2022-10-01T09:37:45;487.00;2380.80
16491;DHT22;8356;51.214;3.270;2022-10-01T09:42:44;486.80;2380.80
16491;DHT22;8356;51.214;3.270;2022-10-01T09:45:16;486.60;2380.80
16491;DHT22;8356;51.214;3.270;2022-10-01T09:47:48;486.50;2380.80
16491;DHT22;8356;51.214;3.270;2022-10-01T09:50:23;486.50;2380.80
16491;DHT22;8356;51.214;3.270;2022-10-01T09:52:51;486.60;2380.80
16491;DHT22;8356;51.214;3.270;2022-10-01T09:58:08;486.50;2380.80
16491;DHT22;8356;51.214;3.270;2022-10-01T10:00:38;486.50;2380.80
16491;DHT22;8356;51.214;3.270;2022-10-01T10:03:04;486.50;2380.80
16491;DHT22;8356;51.214;3.270;2022-10-01T10:05:40;486.70;2380.80
16491;DHT22;8356;51.214;3.270;2022-10-01T10:08:14;487.00;2380.80
16491;DHT22;8356;51.214;3.270;2022-10-01T10:10:56;487.10;2380.80
16491;DHT22;8356;51.214;3.270;2022-10-01T10:13:32;487.00;2380.80
16491;DHT22;8356;51.214;3.270;2022-10-01T10:16:05;486.80;2380.80
16491;DHT22;8356;51.214;3.270;2022-10-01T10:18:36;486.40;2380.80
16491;DHT22;8356;51.214;3.270;2022-10-01T10:21:05;461.60;2380.80
16491;DHT22;8356;51.214;3.270;2022-10-01T10:23:48;461.40;2380.80
16491;DHT22;8356;51.214;3.270;2022-10-01T10:26:27;461.50;2380.80
16491;DHT22;8356;51.214;3.270;2022-10-01T10:28:54;486.40;2380.80
16491;DHT22;8356;51.214;3.270;2022-10-01T10:31:27;486.70;2380.80
16491;DHT22;8356;51.214;3.270;2022-10-01T10:34:04;486.70;2380.80
16491;DHT22;8356;51.214;3.270;2022-10-01T10:36:33;486.60;2380.80
16491;DHT22;8356;51.214;3.270;2022-10-01T10:38:59;486.40;2380.80
16491;DHT22;8356;51.214;3.270;2022-10-01T10:41:27;461.60;2380.80
16491;DHT22;8356;51.214;3.270;2022-10-01T10:44:04;461.60;2380.80
16491;DHT22;8356;51.214;3.270;2022-10-01T10:46:36;461.60;2380.80
16491;DHT22;8356;51.214;3.270;2022-10-01T10:51:49;461.50;2380.80
16491;DHT22;8356;51.214;3.270;2022-10-01T10:54:23;486.40;2380.80
16491;DHT22;8356;51.214;3.270;2022-10-01T10:56:51;486.60;2380.80
16491;DHT22;8356;51.214;3.270;2022-10-01T10:59:17;486.80;2380.80
16491;DHT22;8356;51.214;3.270;2022-10-01T11:01:44;486.70;2380.80
16491;DHT22;8356;51.214;3.270;2022-10-01T11:04:43;486.50;2380.80
16491;DHT22;8356;51.214;3.270;2022-10-01T11:07:10;461.70;2380.80
16491;DHT22;8356;51.214;3.270;2022-10-01T11:09:46;461.70;2380.80
16491;DHT22;8356;51.214;3.270;2022-10-01T11:17:56;486.40;2380.80
16491;DHT22;8356;51.214;3.270;2022-10-01T11:25:59;486.60;2380.80
16491;DHT22;8356;51.214;3.270;2022-10-01T11:28:45;486.50;2380.80
16491;DHT22;8356;51.214;3.270;2022-10-01T11:37:19;486.80;2380.80
16491;DHT22;8356;51.214;3.270;2022-10-01T11:39:54;486.80;2380.80
16491;DHT22;8356;51.214;3.270;2022-10-01T11:42:25;486.80;2380.80
16491;DHT22;8356;51.214;3.270;2022-10-01T11:45:03;486.80;2380.80
16491;DHT22;8356;51.214;3.270;2022-10-01T11:47:43;487.00;2380.80
16491;DHT22;8356;51.214;3.270;2022-10-01T11:50:18;487.20;2380.80
16491;DHT22;8356;51.214;3.270;2022-10-01T11:52:55;512.20;2380.80
16491;DHT22;8356;51.214;3.270;2022-10-01T11:55:35;512.40;2380.80
16491;DHT22;8356;51.214;3.270;2022-10-01T11:58:38;512.60;2380.80
16491;DHT22;8356;51.214;3.270;2022-10-01T12:01:30;512.60;2380.80
16491;DHT22;8356;51.214;3.270;2022-10-01T12:04:05;512.80;2380.80
16491;DHT22;8356;51.214;3.270;2022-10-01T12:06:43;512.70;2380.80
16491;DHT22;8356;51.214;3.270;2022-10-01T12:09:44;512.60;2380.80
16491;DHT22;8356;51.214;3.270;2022-10-01T12:12:39;512.50;2380.80
16491;DHT22;8356;51.214;3.270;2022-10-01T12:15:24;512.70;2380.80
16491;DHT22;8356;51.214;3.270;2022-10-01T12:17:59;512.60;2380.80
16491;DHT22;8356;51.214;3.270;2022-10-01T12:22:57;512.90;2380.80
16491;DHT22;8356;51.214;3.270;2022-10-01T12:25:39;537.60;2406.40
16491;DHT22;8356;51.214;3.270;2022-10-01T12:28:12;537.70;2406.40
16491;DHT22;8356;51.214;3.270;2022-10-01T12:36:24;538.30;2406.40
16491;DHT22;8356;51.214;3.270;2022-10-01T12:44:30;563.40;2432.00
16491;DHT22;8356;51.214;3.270;2022-10-01T12:50:20;563.40;2432.00
16491;DHT22;8356;51.214;3.270;2022-10-01T13:04:13;538.20;2406.40
16491;DHT22;8356;51.214;3.270;2022-10-01T13:09:41;537.90;2406.40
16491;DHT22;8356;51.214;3.270;2022-10-01T13:14:58;512.80;2380.80
16491;DHT22;8356;51.214;3.270;2022-10-01T13:17:36;512.60;2380.80
16491;DHT22;8356;51.214;3.270;2022-10-01T13:20:14;512.30;2380.80
16491;DHT22;8356;51.214;3.270;2022-10-01T13:28:22;512.80;2380.80
16491;DHT22;8356;51.214;3.270;2022-10-01T13:31:00;537.60;2406.40
16491;DHT22;8356;51.214;3.270;2022-10-01T13:33:34;537.60;2406.40
16491;DHT22;8356;51.214;3.270;2022-10-01T13:36:02;512.90;2380.80
16491;DHT22;8356;51.214;3.270;2022-10-01T13:38:41;512.70;2380.80
16491;DHT22;8356;51.214;3.270;2022-10-01T13:41:20;512.60;2380.80
16491;DHT22;8356;51.214;3.270;2022-10-01T13:44:33;512.50;2380.80
16491;DHT22;8356;51.214;3.270;2022-10-01T13:47:00;512.40;2380.80
16491;DHT22;8356;51.214;3.270;2022-10-01T13:49:31;512.40;2380.80
16491;DHT22;8356;51.214;3.270;2022-10-01T13:51:58;512.20;2380.80
16491;DHT22;8356;51.214;3.270;2022-10-01T13:54:45;512.30;2380.80
16491;DHT22;8356;51.214;3.270;2022-10-01T14:00:20;512.20;2380.80
16491;DHT22;8356;51.214;3.270;2022-10-01T14:03:01;512.20;2380.80
16491;DHT22;8356;51.214;3.270;2022-10-01T14:05:37;512.30;2380.80
16491;DHT22;8356;51.214;3.270;2022-10-01T14:08:14;512.40;2380.80
16491;DHT22;8356;51.214;3.270;2022-10-01T14:10:53;512.50;2380.80
16491;DHT22;8356;51.214;3.270;2022-10-01T14:13:45;512.60;2380.80
16491;DHT22;8356;51.214;3.270;2022-10-01T14:16:41;512.40;2380.80
16491;DHT22;8356;51.214;3.270;2022-10-01T14:19:08;512.20;2380.80
16491;DHT22;8356;51.214;3.270;2022-10-01T14:24:12;512.30;2380.80
16491;DHT22;8356;51.214;3.270;2022-10-01T14:26:57;512.40;2380.80
16491;DHT22;8356;51.214;3.270;2022-10-01T14:29:43;512.60;2380.80
16491;DHT22;8356;51.214;3.270;2022-10-01T14:32:20;512.70;2380.80
16491;DHT22;8356;51.214;3.270;2022-10-01T14:37:27;512.30;2380.80
16491;DHT22;8356;51.214;3.270;2022-10-01T14:40:01;512.20;2380.80
16491;DHT22;8356;51.214;3.270;2022-10-01T14:42:27;512.10;2380.80
16491;DHT22;8356;51.214;3.270;2022-10-01T14:44:52;512.00;2380.80
16491;DHT22;8356;51.214;3.270;2022-10-01T14:47:19;512.00;2380.80
16491;DHT22;8356;51.214;3.270;2022-10-01T14:49:46;512.00;2380.80
16491;DHT22;8356;51.214;3.270;2022-10-01T14:52:22;512.00;2380.80
16491;DHT22;8356;51.214;3.270;2022-10-01T14:54:58;512.00;2380.80
16491;DHT22;8356;51.214;3.270;2022-10-01T14:59:54;512.00;2380.80
16491;DHT22;8356;51.214;3.270;2022-10-01T15:02:22;512.00;2380.80
16491;DHT22;8356;51.214;3.270;2022-10-01T15:04:53;512.00;2380.80
16491;DHT22;8356;51.214;3.270;2022-10-01T15:07:20;512.00;2380.80
16491;DHT22;8356;51.214;3.270;2022-10-01T15:09:46;512.00;2380.80
16491;DHT22;8356;51.214;3.270;2022-10-01T15:12:14;512.00;2380.80
16491;DHT22;8356;51.214;3.270;2022-10-01T15:14:41;512.00;2380.80
16491;DHT22;8356;51.214;3.270;2022-10-01T15:17:17;512.00;2380.80
16491;DHT22;8356;51.214;3.270;2022-10-01T15:19:45;512.00;2380.80
16491;DHT22;8356;51.214;3.270;2022-10-01T15:22:22;512.00;2380.80
16491;DHT22;8356;51.214;3.270;2022-10-01T15:24:49;512.00;2380.80
16491;DHT22;8356;51.214;3.270;2022-10-01T15:27:18;512.00;2380.80
16491;DHT22;8356;51.214;3.270;2022-10-01T15:29:47;487.30;2380.80
16491;DHT22;8356;51.214;3.270;2022-10-01T15:32:17;487.30;2380.80
16491;DHT22;8356;51.214;3.270;2022-10-01T15:34:57;487.30;2380.80
16491;DHT22;8356;51.214;3.270;2022-10-01T15:37:32;512.00;2380.80
16491;DHT22;8356;51.214;3.270;2022-10-01T15:39:59;487.30;2380.80
16491;DHT22;8356;51.214;3.270;2022-10-01T15:42:30;487.30;2380.80
16491;DHT22;8356;51.214;3.270;2022-10-01T15:47:33;487.30;2380.80
16491;DHT22;8356;51.214;3.270;2022-10-01T16:00:29;512.00;2380.80
16491;DHT22;8356;51.214;3.270;2022-10-01T16:02:56;512.00;2380.80
16491;DHT22;8356;51.214;3.270;2022-10-01T16:05:26;487.30;2380.80
16491;DHT22;8356;51.214;3.270;2022-10-01T16:07:55;512.00;2380.80
16491;DHT22;8356;51.214;3.270;2022-10-01T16:12:57;512.00;2380.80
16491;DHT22;8356;51.214;3.270;2022-10-01T16:15:28;512.00;2380.80
16491;DHT22;8356;51.214;3.270;2022-10-01T16:17:58;487.30;2380.80
16491;DHT22;8356;51.214;3.270;2022-10-01T16:20:39;512.00;2380.80
16491;DHT22;8356;51.214;3.270;2022-10-01T16:26:03;512.00;2380.80
16491;DHT22;8356;51.214;3.270;2022-10-01T16:28:31;512.00;2380.80
16491;DHT22;8356;51.214;3.270;2022-10-01T16:30:58;512.00;2380.80
16491;DHT22;8356;51.214;3.270;2022-10-01T16:33:24;486.90;2380.80
16491;DHT22;8356;51.214;3.270;2022-10-01T16:35:51;487.30;2380.80
16491;DHT22;8356;51.214;3.270;2022-10-01T16:38:18;487.20;2380.80
16491;DHT22;8356;51.214;3.270;2022-10-01T16:40:44;487.20;2380.80
16491;DHT22;8356;51.214;3.270;2022-10-01T16:43:20;487.20;2380.80
16491;DHT22;8356;51.214;3.270;2022-10-01T16:45:49;487.10;2380.80
16491;DHT22;8356;51.214;3.270;2022-10-01T16:48:17;487.00;2380.80
16491;DHT22;8356;51.214;3.270;2022-10-01T16:50:45;486.90;2380.80
16491;DHT22;8356;51.214;3.270;2022-10-01T16:53:14;486.90;2380.80
16491;DHT22;8356;51.214;3.270;2022-10-01T16:55:41;486.80;2380.80
16491;DHT22;8356;51.214;3.270;2022-10-01T16:58:07;486.80;2380.80
16491;DHT22;8356;51.214;3.270;2022-10-01T17:00:33;486.80;2380.80
16491;DHT22;8356;51.214;3.270;2022-10-01T17:03:05;486.70;2380.80
16491;DHT22;8356;51.214;3.270;2022-10-01T17:05:34;486.80;2380.80
16491;DHT22;8356;51.214;3.270;2022-10-01T17:08:00;486.80;2380.80
16491;DHT22;8356;51.214;3.270;2022-10-01T17:10:29;486.80;2380.80
16491;DHT22;8356;51.214;3.270;2022-10-01T17:12:56;486.70;2380.80
16491;DHT22;8356;51.214;3.270;2022-10-01T17:15:25;486.70;2380.80
16491;DHT22;8356;51.214;3.270;2022-10-01T17:17:56;486.70;2380.80
16491;DHT22;8356;51.214;3.270;2022-10-01T17:20:24;486.70;2380.80
16491;DHT22;8356;51.214;3.270;2022-10-01T17:22:51;486.60;2380.80
16491;DHT22;8356;51.214;3.270;2022-10-01T17:25:22;486.50;2380.80
16491;DHT22;8356;51.214;3.270;2022-10-01T17:27:48;486.40;2380.80
16491;DHT22;8356;51.214;3.270;2022-10-01T17:30:14;461.70;2380.80
16491;DHT22;8356;51.214;3.270;2022-10-01T17:32:40;461.60;2380.80
16491;DHT22;8356;51.214;3.270;2022-10-01T17:35:08;461.60;2380.80
16491;DHT22;8356;51.214;3.270;2022-10-01T17:37:34;461.60;2380.80
16491;DHT22;8356;51.214;3.270;2022-10-01T17:40:00;461.50;2380.80
16491;DHT22;8356;51.214;3.270;2022-10-01T17:42:26;461.60;2380.80
16491;DHT22;8356;51.214;3.270;2022-10-01T17:44:52;461.60;2380.80